Terminal Aerodrome Forecast
Issued by NWS Flagstaff, AZ

Home | Current Version | Previous Version | Text Only | Print | Product List | Glossary On
Versions: 1 2 3 4 5 6 7 8 9 10 11 12 13 14 15 16 17 18 19 20 21 22 23 24
000
FTUS45 KFGZ 262300
TAFFLG
TAF
KFLG 262338Z 2700/2724 35010G18KT P6SM SCT035 BKN050
      TEMPO 2700/2701 5SM -SHRASN BR BKN030
     FM270200 VRB05KT P6SM SCT050
     FM271700 05010G20KT P6SM SCT060=

USA.gov is the U.S. government's official web portal to all federal, state and local government web resources and services.